Date,TemperatureHighF,TemperatureAvgF,TemperatureLowF,DewpointHighF,DewpointAvgF,DewpointLowF,HumidityHigh,HumidityAvg,HumidityLow,PressureMaxIn,PressureMinIn,WindSpeedMaxMPH,WindSpeedAvgMPH,GustSpeedMaxMPH,PrecipitationSumIn
2014-1-1,13.1,7.2,-3.6,8.0,1.6,-9.0,88,78,65,30.12,29.82,12,4,20,0.00
2014-1-2,2.4,-1.9,-6.1,-0.8,-5.9,-10.9,87,83,78,30.12,29.68,5,3,8,0.00
2014-1-3,-0.8,-7.5,-16.5,-4.0,-12.9,-21.3,86,77,67,30.13,29.62,11,4,15,0.00
2014-1-4,14.1,-0.3,-17.2,7.8,-6.3,-21.5,83,76,62,30.15,29.90,10,2,12,0.00
2014-1-5,31.6,19.7,9.8,30.3,14.7,6.1,97,81,65,30.00,29.60,6,0,9,0.11
2014-1-6,43.5,33.4,19.8,42.9,29.8,12.0,98,87,64,29.59,28.96,14,7,22,0.85
2014-1-7,19.7,6.8,1.4,12.8,-3.4,-9.6,80,63,46,29.74,29.11,20,9,26,0.00
2014-1-8,15.4,6.9,1.5,3.1,-0.1,-2.5,84,73,55,30.09,29.74,7,3,14,0.00
2014-1-9,18.9,10.1,4.1,9.0,3.3,0.1,89,74,53,30.30,30.07,8,2,14,0.00
2014-1-10,26.7,15.7,1.8,24.4,12.2,-1.4,92,86,79,30.23,29.95,3,0,6,0.00
2014-1-11,47.3,36.9,26.1,46.8,35.8,23.8,98,96,90,29.94,28.85,14,4,15,0.71
2014-1-12,44.3,36.0,32.2,42.4,29.5,23.7,94,77,66,29.60,28.91,12,7,24,0.00
2014-1-13,41.0,35.3,27.4,32.5,27.0,23.4,86,72,57,29.71,29.49,10,4,14,0.00
2014-1-14,39.4,37.7,34.9,37.3,35.3,32.4,97,91,76,29.49,29.35,8,3,13,0.51
2014-1-15,40.0,34.6,29.0,32.9,30.5,26.7,95,85,71,29.64,29.44,8,3,11,0.01
2014-1-16,34.1,27.8,26.5,32.6,25.7,24.1,95,92,89,29.65,29.56,6,2,9,0.00
2014-1-17,33.5,27.7,24.4,27.5,24.5,20.6,96,88,75,29.62,29.55,7,1,9,0.04
2014-1-18,36.2,26.9,18.0,26.7,21.6,16.1,95,81,62,29.60,29.38,5,1,7,0.02
2014-1-19,28.3,25.1,21.7,25.2,21.0,16.0,95,84,72,29.40,29.11,8,3,12,0.00
2014-1-20,26.0,15.2,-3.0,22.4,10.3,-10.1,90,80,69,29.63,29.11,9,4,13,0.00
2014-1-21,1.9,-3.5,-10.2,-8.2,-11.2,-14.7,81,69,55,29.81,29.63,11,4,13,0.00
2014-1-22,3.6,-6.5,-12.6,-6.6,-13.5,-18.2,81,71,60,29.75,29.52,9,4,15,0.00
2014-1-23,7.8,-3.8,-12.3,-3.1,-10.2,-16.5,82,74,59,29.87,29.65,7,1,10,0.00
2014-1-24,8.5,-1.3,-11.9,-1.2,-9.3,-16.0,83,69,47,29.95,29.58,7,2,11,0.00
2014-1-25,19.3,14.4,7.7,16.0,8.0,-1.5,91,76,63,29.58,28.97,16,8,19,0.00
2014-1-26,17.6,6.0,-3.9,13.8,-3.9,-13.7,86,64,50,29.49,28.97,14,5,20,0.00
2014-1-27,25.4,16.0,10.7,22.3,10.6,2.8,91,79,70,29.46,29.13,14,6,17,0.00
2014-1-28,11.6,6.1,-1.8,-5.1,-7.2,-10.4,67,54,41,29.92,29.78,15,5,20,0.00
2014-1-29,17.0,7.5,-0.2,-1.6,-6.3,-9.9,69,54,33,29.87,29.58,12,3,15,0.00
2014-1-30,21.9,13.6,3.7,8.3,4.4,-1.3,84,67,54,30.07,29.73,9,3,14,0.00
2014-1-31,31.8,23.2,16.6,19.2,12.5,5.1,77,63,51,29.86,29.65,7,3,12,0.00
2014-2-1,32.9,26.0,16.0,29.5,20.9,13.1,94,81,65,30.01,29.64,12,2,19,0.00
2014-2-2,34.2,30.7,23.1,32.1,28.6,18.8,95,92,82,29.82,29.53,8,2,10,0.05
2014-2-3,28.1,21.0,11.9,19.0,15.9,9.0,92,81,61,30.01,29.83,5,1,6,0.01
2014-2-4,24.7,15.6,5.5,14.2,9.3,2.5,90,76,59,30.16,30.00,8,1,10,0.00
2014-2-5,20.7,17.3,11.4,18.7,14.4,7.3,93,88,78,30.06,29.49,8,2,11,0.00
2014-2-6,16.7,8.1,-3.3,7.3,2.7,-6.9,89,79,62,29.98,29.70,8,1,12,0.01
2014-2-7,20.0,10.5,0.7,10.2,5.0,-2.9,90,79,62,29.88,29.81,12,2,15,0.00
2014-2-8,20.9,10.6,4.9,7.0,2.4,-0.7,78,69,54,29.94,29.82,10,3,15,0.00
2014-2-10,9.3,7.1,6.3,4.6,3.4,2.4,86,84,81,29.88,29.86,2,1,2,0.00
2014-2-11,13.1,4.6,-3.3,4.2,-0.8,-7.7,89,78,61,30.18,29.88,9,2,11,0.00
2014-2-12,21.7,7.7,-9.0,2.4,-4.0,-12.8,85,61,38,30.28,30.06,9,2,14,0.00
2014-2-13,28.8,19.4,13.0,27.0,13.1,-3.0,94,77,47,30.06,28.97,11,3,15,0.00
2014-2-14,28.8,23.0,15.7,26.9,21.1,13.5,95,92,88,29.38,28.66,16,8,22,0.00
2014-2-15,27.6,22.0,15.9,25.6,20.0,13.7,95,92,89,29.54,29.34,11,1,13,0.01
2014-2-16,18.3,12.1,7.3,15.4,5.7,-3.0,89,76,62,29.71,29.34,14,7,20,0.00
2014-2-17,14.8,6.5,-0.8,-2.1,-5.3,-9.4,70,58,42,30.09,29.71,11,5,16,0.00
2014-2-18,21.6,11.3,-4.3,19.4,7.4,-10.8,93,84,68,30.03,29.73,10,2,12,0.00
2014-2-19,27.1,20.6,10.6,25.4,18.6,8.2,94,92,86,29.76,29.46,12,2,20,0.00
2014-2-20,39.6,32.9,25.4,30.5,26.1,22.0,96,78,50,29.85,29.57,14,3,19,0.06
2014-2-21,32.0,31.7,31.1,30.9,30.5,30.1,96,95,94,29.81,29.77,2,1,3,0.00
2014-2-25,15.6,11.3,4.2,7.5,4.6,0.9,88,74,63,29.62,29.55,10,4,13,0.00
2014-2-26,17.0,7.3,-0.9,10.4,-1.7,-10.8,89,68,44,29.60,29.41,16,4,19,0.00
2014-2-27,17.8,8.5,-1.8,9.4,-0.6,-11.1,88,66,46,29.50,29.24,15,4,22,0.00
2014-2-28,12.3,4.7,-1.3,-3.3,-7.8,-11.5,76,57,35,30.10,29.50,11,4,17,0.00
2014-3-1,24.2,12.8,-5.0,12.6,0.4,-11.9,73,58,45,30.09,29.73,13,4,17,0.00
2014-3-2,23.8,16.4,4.6,18.7,8.1,-4.0,86,69,54,29.80,29.70,9,4,15,0.00
2014-3-3,11.9,5.1,-4.0,-3.8,-7.3,-12.7,73,56,42,30.02,29.74,11,4,15,0.00
2014-3-4,18.9,5.8,-10.7,9.0,-4.0,-16.7,88,66,27,30.05,29.96,10,2,12,0.00
2014-3-5,17.7,10.5,0.6,9.8,3.2,-10.4,88,73,58,30.25,29.98,9,2,14,0.00
2014-3-6,25.4,10.7,-5.8,-3.2,-11.2,-16.3,62,39,18,30.37,30.16,4,1,5,0.01
2014-3-7,35.0,21.5,7.6,9.9,-0.6,-11.6,52,38,25,30.16,29.63,12,4,14,0.00
2014-3-8,36.8,25.8,18.7,26.4,15.9,9.0,78,66,53,29.63,29.47,11,3,16,0.00
2014-3-9,20.4,17.7,16.0,11.2,9.5,7.6,74,70,66,29.59,29.58,4,3,6,0.00
2014-3-11,40.3,34.9,28.9,32.8,29.5,24.6,96,81,65,29.41,29.16,10,4,15,0.14
2014-3-12,30.6,25.1,16.1,29.0,23.0,14.2,94,92,82,29.41,28.94,13,6,19,0.03
2014-3-13,15.9,13.7,10.9,14.0,11.6,8.4,92,91,90,29.00,28.93,11,9,15,0.00
2014-3-14,27.4,25.3,22.6,20.1,18.1,16.5,78,74,71,29.63,29.49,12,6,21,0.01
2014-3-15,45.4,33.1,24.8,33.1,26.9,20.1,92,78,59,29.54,29.31,13,5,20,0.08
2014-3-16,24.5,11.8,1.4,20.0,2.7,-8.0,83,67,50,29.93,29.55,15,8,21,0.00
2014-3-17,17.7,7.2,-5.4,-0.2,-6.4,-11.9,75,54,37,29.92,29.81,9,2,13,0.00
2014-3-18,35.2,14.6,-1.8,5.8,-2.8,-8.8,74,50,22,30.04,29.90,4,1,5,0.00
2014-3-19,33.4,25.2,13.9,26.8,12.0,-2.4,94,59,36,30.04,29.64,15,4,17,0.00
2014-3-20,36.6,31.2,27.6,34.8,28.9,25.6,96,91,77,29.63,29.28,11,4,14,0.25
2014-3-21,30.4,27.3,23.4,26.0,20.8,12.6,92,77,57,29.71,29.35,13,6,17,0.01
2014-3-22,33.8,24.1,14.7,30.7,19.1,9.7,93,81,62,29.71,29.33,17,4,24,0.00
2014-3-23,27.7,17.9,4.1,24.1,9.0,-4.3,91,69,45,29.84,29.57,14,6,20,0.00
2014-3-24,20.4,10.8,2.5,-0.1,-2.4,-5.0,73,56,37,29.88,29.76,12,4,17,0.00
2014-3-25,28.2,14.7,-0.6,11.0,3.2,-5.5,82,61,43,29.80,29.69,7,2,14,0.01
2014-3-26,23.0,19.2,13.6,14.6,8.4,-0.4,75,62,50,29.74,29.49,18,9,25,0.00
2014-3-27,32.3,22.1,6.3,15.2,4.5,-3.5,65,47,30,29.99,29.74,15,4,17,0.00
2014-3-28,41.4,32.5,26.5,40.6,28.0,12.3,97,85,46,29.86,29.56,9,3,11,0.30
2014-3-29,42.4,38.2,34.3,40.6,33.5,31.4,97,83,70,29.98,29.70,11,3,17,0.02
2014-3-30,35.7,34.3,30.2,34.4,32.6,28.0,95,93,88,29.73,29.45,12,7,15,0.50
2014-3-31,33.3,29.6,26.4,28.0,25.3,23.4,93,84,72,29.84,29.55,15,9,23,0.01
2014-4-1,49.8,35.7,22.3,27.2,23.3,18.9,87,63,36,29.85,29.73,8,3,9,0.01
2014-4-2,50.8,40.7,33.0,33.6,28.0,20.1,74,61,46,29.76,29.67,10,4,12,0.00
2014-4-3,37.7,32.9,28.6,28.1,22.9,19.4,79,67,55,29.89,29.73,10,4,15,0.00
2014-4-4,43.7,32.6,20.7,30.0,23.4,15.5,93,70,50,29.87,29.55,14,4,17,0.11
2014-4-5,40.3,34.3,30.8,36.6,29.8,23.8,96,84,65,29.60,29.36,15,6,35,0.09
2014-4-6,44.9,35.5,28.5,26.4,22.5,19.6,77,60,41,29.87,29.59,14,6,17,0.00
2014-4-7,51.1,40.8,28.1,33.5,27.1,22.1,90,60,44,29.92,29.60,19,3,24,0.07
2014-4-8,47.9,41.4,34.2,44.4,38.9,31.9,96,91,81,29.59,28.96,16,6,26,0.28
2014-4-9,39.8,35.3,29.0,34.8,24.0,11.7,90,66,36,29.63,29.20,14,7,18,0.00
2014-4-10,55.4,39.5,23.0,30.5,22.7,12.8,72,52,33,29.77,29.52,13,5,19,0.00
2014-4-11,44.6,42.6,41.1,34.8,30.7,28.4,75,63,54,29.60,29.51,9,4,11,0.00
2014-4-13,50.0,42.5,37.3,42.5,37.6,29.7,95,83,67,29.91,29.64,14,4,24,0.26
2014-4-14,74.4,58.1,37.4,56.9,48.9,35.1,96,74,44,29.68,29.37,14,7,24,0.00
2014-4-15,60.1,51.7,25.6,58.0,48.6,23.1,96,89,78,29.49,29.09,15,8,21,1.05
2014-4-16,28.4,22.2,17.1,22.8,14.5,10.1,92,73,54,30.34,29.48,15,7,20,0.02
2014-4-17,42.8,29.7,15.0,21.5,16.6,12.1,90,61,36,30.51,30.33,8,3,14,0.00
2014-4-18,47.6,37.0,24.3,27.0,20.4,14.8,71,52,32,30.34,29.89,9,4,13,0.00
2014-4-19,42.2,38.0,33.0,36.2,29.8,22.8,90,73,54,30.14,29.82,11,4,20,0.02
2014-4-20,58.0,42.7,26.9,23.8,18.7,12.7,76,43,17,30.22,29.94,6,2,8,0.00
2014-4-21,71.3,53.9,39.7,36.8,29.8,18.3,64,42,22,29.94,29.47,10,3,15,0.00
2014-4-22,65.9,55.5,47.4,49.3,38.3,31.2,94,55,28,29.47,29.12,8,2,10,0.08
2014-4-23,50.3,41.8,37.2,46.3,37.6,30.8,93,85,76,29.39,29.11,11,6,19,0.01
2014-4-24,45.4,38.8,31.7,30.6,26.5,22.2,78,62,51,29.65,29.39,16,10,29,0.00
2014-4-25,56.9,45.7,32.8,28.5,24.7,19.2,73,47,26,29.72,29.47,9,3,12,0.00
2014-4-26,47.9,40.5,37.8,38.4,34.7,22.7,96,83,37,29.52,29.40,12,4,16,0.17
2014-4-27,46.4,39.2,36.1,40.2,36.5,34.2,97,90,76,29.81,29.52,11,4,16,0.06
2014-4-28,50.9,43.8,36.2,39.3,36.4,32.3,89,76,62,29.93,29.76,13,6,18,0.00
2014-4-29,56.1,45.1,37.5,37.3,34.9,31.7,84,69,43,30.08,29.92,9,4,14,0.00
2014-5-1,53.1,50.5,48.1,49.4,46.3,40.5,91,85,73,29.42,29.39,9,5,15,0.39
2014-5-2,56.2,48.8,39.1,46.5,38.8,33.1,88,69,54,29.48,29.32,15,4,17,0.04
2014-5-3,59.6,49.7,41.9,45.3,40.5,32.9,92,72,48,29.51,29.37,8,2,11,0.02
2014-5-4,50.1,44.4,41.2,44.0,41.2,38.6,95,89,70,29.37,29.18,11,4,16,0.38
2014-5-5,48.7,43.9,39.7,42.8,40.1,36.7,93,87,73,29.58,29.34,12,6,20,0.01
2014-5-6,53.5,45.9,39.3,38.4,33.5,28.4,89,64,39,29.75,29.54,12,6,16,0.00
2014-5-7,59.0,48.1,35.2,37.5,30.9,23.7,84,54,26,29.90,29.75,9,3,19,0.00
2014-5-8,66.2,52.6,34.9,38.1,29.9,22.9,80,46,22,29.90,29.78,9,3,13,0.00
2014-5-9,52.6,49.6,44.2,46.9,34.7,23.4,94,58,34,29.89,29.70,10,4,12,0.00
2014-5-10,76.0,61.5,48.5,62.7,50.1,29.1,98,72,28,29.71,29.36,14,5,24,0.26
2014-5-11,68.1,59.6,52.1,43.5,38.7,31.7,62,47,31,29.68,29.46,14,6,23,0.00
2014-5-12,73.0,62.0,49.3,45.9,40.0,36.0,64,45,33,29.80,29.68,13,5,23,0.00
2014-5-13,55.9,52.1,48.1,47.0,44.4,38.1,92,76,52,29.94,29.80,7,3,13,0.02
2014-5-14,73.7,58.6,46.2,55.0,45.2,36.7,83,62,44,29.93,29.83,9,5,18,0.00
2014-5-15,57.4,55.2,53.7,48.5,48.0,47.5,82,77,72,29.89,29.88,6,5,8,0.00
2014-5-20,66.2,58.0,50.2,41.3,39.3,37.7,69,51,37,29.69,29.66,9,3,13,0.00
2014-5-21,71.9,59.3,44.3,51.6,44.6,38.0,91,61,31,29.69,29.56,4,1,9,0.00
2014-5-22,63.5,54.9,50.2,54.4,50.7,46.5,97,86,68,29.58,29.49,8,2,16,0.45
2014-5-23,56.7,53.3,51.3,55.0,51.8,50.5,98,95,88,29.67,29.53,2,0,4,0.05
2014-5-24,65.6,55.1,50.6,56.8,51.3,49.0,98,88,58,29.74,29.65,7,1,10,0.17
2014-5-25,73.3,60.0,45.2,58.9,48.2,41.6,98,70,32,29.76,29.63,7,2,12,0.01
2014-5-26,72.3,61.1,54.7,61.3,55.1,50.0,91,81,56,29.63,29.46,9,4,14,0.33
2014-5-27,67.1,57.3,47.5,62.3,54.9,46.1,97,92,81,29.61,29.44,7,2,11,0.13
2014-5-28,52.5,47.4,42.2,49.7,45.8,41.1,97,94,87,29.90,29.58,4,0,7,0.25
2014-5-29,47.2,41.8,40.0,46.7,41.1,39.2,98,97,96,29.95,29.89,2,0,3,0.01
2014-7-29,67.4,61.7,51.6,56.1,53.0,49.5,93,74,62,29.64,29.48,6,2,9,0.00
2014-7-30,70.5,59.1,46.8,57.8,52.0,45.7,97,79,51,29.72,29.64,2,0,5,0.00
2014-7-31,69.6,59.8,53.2,61.5,55.8,51.3,97,87,69,29.80,29.69,8,1,10,0.06
2014-8-1,76.9,65.8,53.1,66.3,60.6,52.3,98,84,64,29.88,29.80,5,1,12,0.00
2014-8-2,77.4,67.8,60.8,67.6,62.6,57.6,98,84,66,29.87,29.75,5,2,11,0.00
2014-8-3,78.2,66.7,55.7,67.1,61.4,54.7,97,84,60,29.80,29.68,3,0,4,0.00
2014-8-4,77.2,68.2,60.7,66.8,61.8,56.2,96,81,56,29.71,29.65,4,1,6,0.00
2014-8-5,79.9,65.6,56.5,68.4,60.3,55.4,97,85,49,29.70,29.57,8,1,11,0.17
2014-8-6,71.3,64.9,59.8,62.7,58.7,52.2,98,82,57,29.59,29.50,6,3,11,0.02
2014-8-7,69.4,59.5,53.0,58.6,54.6,49.9,96,85,60,29.64,29.53,8,2,14,0.41
2014-8-8,73.4,62.6,50.5,61.3,56.2,49.7,98,81,59,29.73,29.64,7,2,10,0.01
2014-8-9,77.6,66.8,54.5,63.3,57.0,53.0,96,73,48,29.79,29.71,7,2,11,0.00
2014-8-10,79.4,67.1,53.7,66.5,58.5,52.3,97,76,51,29.82,29.76,5,1,7,0.00
2014-8-11,81.4,68.3,55.6,66.5,60.0,54.5,97,77,47,29.82,29.73,3,0,6,0.00
2014-8-12,75.8,67.6,59.1,65.4,60.6,56.9,95,79,61,29.76,29.65,6,2,12,0.00
2014-8-13,65.2,61.2,57.3,61.8,59.1,56.2,97,93,86,29.65,29.35,7,3,13,1.11
2014-8-14,65.7,58.4,49.1,56.5,52.2,47.3,97,81,57,29.52,29.34,7,2,11,0.01
2014-8-15,63.2,55.6,48.0,54.9,50.7,45.9,95,84,66,29.56,29.51,4,1,7,0.00
2014-8-16,67.4,58.7,52.9,58.2,54.0,51.4,96,85,63,29.59,29.54,5,1,7,0.07
2014-8-17,65.4,58.7,55.1,58.1,55.4,53.7,96,89,73,29.54,29.46,7,2,12,0.02
2014-8-18,64.7,57.9,51.6,55.4,52.4,49.1,95,83,66,29.58,29.48,8,3,10,0.04
2014-8-19,52.2,48.5,45.7,49.7,47.2,44.6,97,95,91,29.61,29.56,0,0,1,0.00
2014-8-21,67.1,60.3,56.7,61.2,57.3,54.9,97,90,73,29.77,29.72,5,1,6,0.09
2014-8-22,63.4,59.3,55.6,60.8,57.9,54.5,98,95,88,29.81,29.75,4,0,4,0.15
2014-8-23,73.3,63.5,56.8,62.2,57.6,53.5,98,83,52,29.84,29.79,3,0,5,0.00
2014-8-24,79.0,66.2,53.5,65.4,58.5,52.4,97,78,51,29.86,29.78,5,1,7,0.00
2014-8-25,83.0,68.7,55.7,68.6,59.8,54.6,97,76,41,29.87,29.77,4,1,7,0.00
2014-8-26,81.7,67.7,54.9,67.6,59.2,53.8,97,77,43,29.82,29.64,5,1,8,0.00
2014-8-27,80.0,69.6,60.3,67.2,61.7,56.7,93,77,55,29.64,29.51,6,2,10,0.00
2014-8-28,66.7,61.1,56.1,58.1,53.5,48.9,95,77,56,29.69,29.51,9,4,14,0.00
2014-8-29,73.6,61.6,52.7,58.7,54.0,50.5,94,78,51,29.88,29.69,5,1,8,0.00
2014-8-30,73.3,63.4,54.9,62.0,57.4,52.2,96,82,62,29.90,29.72,7,2,12,0.00
2014-8-31,71.5,65.8,59.7,68.6,63.9,58.0,97,93,87,29.72,29.59,3,1,6,0.07
2014-9-1,81.4,70.1,60.9,70.6,63.7,60.3,98,82,55,29.65,29.56,5,1,9,0.01
2014-9-2,82.7,69.0,59.2,71.9,64.5,58.3,98,87,62,29.58,29.43,4,1,8,0.00
2014-9-3,63.0,58.8,55.1,55.9,53.1,51.5,89,81,70,29.74,29.70,2,0,3,0.02
2014-9-4,79.0,63.7,49.9,64.2,57.1,48.8,97,81,52,29.84,29.74,4,1,6,0.00
2014-9-5,83.6,73.2,60.1,70.3,65.5,58.7,96,78,56,29.79,29.55,6,2,11,0.00
2014-9-6,77.6,67.3,57.4,69.7,63.8,55.5,96,89,66,29.59,29.40,8,2,13,0.19
2014-9-7,68.7,59.2,47.6,56.7,51.0,45.8,95,76,52,29.90,29.59,6,2,10,0.00
2014-9-8,72.3,58.9,45.6,56.6,50.9,44.5,97,77,50,30.06,29.90,5,1,8,0.00
2014-9-9,67.6,61.0,51.5,52.8,50.1,46.3,85,68,50,30.05,29.87,7,2,9,0.00
2014-9-10,70.6,57.6,46.1,59.9,52.4,44.7,97,84,65,29.87,29.70,3,1,5,0.00
2014-9-12,52.4,47.9,39.0,44.9,42.2,37.1,93,81,72,29.97,29.82,5,3,11,0.00
2014-9-13,50.6,45.2,37.7,49.8,43.2,36.1,97,93,82,29.98,29.78,7,1,9,0.23
2014-9-14,49.6,43.3,35.5,47.2,39.4,34.0,95,86,75,29.97,29.83,6,3,12,0.00
2014-9-15,60.5,44.6,29.7,47.5,39.2,28.7,98,83,48,29.96,29.77,4,0,10,0.01
2014-9-16,60.7,51.5,46.6,53.0,47.9,45.0,96,88,64,29.77,29.61,7,1,11,0.05
2014-9-17,63.4,50.3,38.4,52.7,44.8,37.6,98,83,55,29.71,29.61,4,0,6,0.01
2014-9-18,54.2,46.5,36.5,48.7,42.3,33.0,97,86,66,29.89,29.60,7,2,15,0.00
2014-9-19,53.9,42.8,30.2,34.6,30.9,25.8,90,65,36,30.10,29.89,4,1,7,0.00
2014-9-20,59.7,50.1,39.6,56.1,46.2,33.7,90,86,77,30.03,29.69,6,4,10,0.00
2014-9-21,75.1,65.1,53.8,64.9,60.2,52.0,95,85,65,29.69,29.19,8,4,16,0.00
2014-9-22,66.5,52.0,44.1,64.4,46.5,36.0,96,82,65,29.75,29.17,11,4,16,0.23
2014-9-23,60.7,50.6,40.9,50.5,44.1,36.4,94,79,64,30.12,29.76,9,2,16,0.00
2014-9-24,65.4,52.4,41.3,56.0,47.6,40.2,98,85,60,30.31,30.12,5,1,7,0.00
2014-9-25,66.2,52.7,44.1,56.6,49.6,43.3,98,90,67,30.23,29.96,3,0,4,0.01
2014-9-26,73.7,58.0,44.4,61.0,52.2,43.6,98,83,55,29.97,29.86,5,1,11,0.01
2014-9-27,78.1,63.5,50.6,64.3,57.0,49.1,97,81,58,29.91,29.84,4,1,7,0.00
2014-9-28,79.2,64.2,51.4,64.9,58.2,50.5,98,83,54,29.86,29.67,5,1,8,0.00
2014-9-29,71.2,62.3,54.6,61.3,57.1,52.9,96,84,65,29.68,29.60,5,1,8,0.00
2014-9-30,65.3,57.5,53.6,57.7,54.3,52.3,96,89,75,29.73,29.65,3,1,7,0.00
2014-10-1,62.9,56.4,51.5,55.6,53.0,49.5,98,89,73,29.83,29.73,2,0,4,0.00
2014-10-2,69.4,56.6,47.8,56.9,51.8,46.7,98,85,58,29.89,29.76,4,1,7,0.00
2014-10-3,68.0,55.6,48.0,54.4,48.6,44.5,98,80,44,29.82,29.54,7,2,10,0.00
2014-10-4,56.2,53.8,48.6,54.3,51.8,46.7,97,93,85,29.53,29.21,8,3,13,0.82
2014-10-5,57.2,47.7,39.3,46.6,40.2,34.9,94,77,45,29.60,29.24,7,2,12,0.03
2014-10-6,59.8,46.8,30.6,46.2,38.7,29.3,97,76,48,29.77,29.60,7,2,12,0.00
2014-10-7,65.2,55.7,49.6,59.6,51.5,46.0,97,86,70,29.77,29.59,9,3,14,0.29
2014-10-8,61.4,55.5,47.2,55.7,49.2,37.7,97,80,50,29.59,29.29,12,4,16,0.34
2014-10-9,51.2,45.8,40.2,39.6,36.8,32.9,85,71,54,29.63,29.47,9,3,16,0.01
2014-10-10,47.1,41.4,35.2,38.0,34.9,31.7,87,78,67,29.74,29.63,6,2,9,0.00
2014-10-11,53.3,44.8,37.2,41.8,37.0,32.5,96,76,53,29.84,29.75,6,1,7,0.00
2014-10-12,55.1,42.9,34.3,39.9,34.3,29.9,96,74,43,29.99,29.83,7,2,13,0.00
2014-10-13,54.4,43.9,29.4,48.1,39.0,27.9,96,83,65,30.02,29.91,6,2,13,0.00
2014-10-14,72.4,61.1,51.9,62.6,56.4,48.1,94,85,70,29.92,29.75,8,4,16,0.00
2014-10-15,75.2,66.8,61.5,64.5,61.8,58.7,92,84,66,29.75,29.61,8,4,13,0.00
2014-10-16,68.3,64.4,56.7,66.5,62.9,54.8,97,95,89,29.61,29.32,10,2,14,0.68
2014-10-17,63.0,56.9,53.6,55.9,52.3,48.5,98,85,67,29.33,29.22,9,2,14,0.09
2014-10-18,54.9,51.6,44.3,52.9,49.2,41.6,97,91,83,29.32,29.17,9,2,17,0.36
2014-10-19,44.2,38.1,35.4,41.5,32.5,26.4,93,80,66,29.63,29.32,9,6,15,0.02
2014-10-20,48.3,39.6,31.5,37.6,30.0,25.2,86,69,51,29.70,29.63,7,2,15,0.00
2014-10-21,45.4,43.7,39.4,44.3,42.6,38.1,96,96,95,29.80,29.68,5,2,6,0.22
2014-10-22,51.1,46.6,44.0,46.3,43.8,42.2,96,90,77,29.88,29.72,9,6,13,0.10
2014-10-23,46.8,45.4,43.9,45.0,43.1,41.4,96,92,87,29.72,29.49,12,7,18,0.31
2014-10-24,44.1,42.0,41.0,42.5,40.0,35.6,96,93,80,29.52,29.45,8,4,13,0.11
2014-10-25,58.0,45.4,33.5,46.1,40.1,32.2,97,83,55,29.51,29.15,7,1,10,0.14
2014-10-26,46.6,43.6,40.4,45.2,40.4,36.7,96,89,81,29.37,29.10,10,4,16,0.07
2014-10-27,46.0,41.6,38.8,40.3,37.8,36.0,92,87,79,29.72,29.37,10,4,15,0.01
2014-10-28,51.0,44.5,38.0,46.3,41.7,36.0,95,90,82,29.75,29.59,6,1,7,0.04
2014-10-29,54.9,49.9,42.7,52.4,45.0,34.6,94,84,65,29.59,29.44,7,2,14,0.00
2014-10-30,48.2,41.8,38.4,40.5,36.0,32.2,91,80,64,29.68,29.53,9,3,12,0.03
2014-10-31,48.0,40.5,33.4,35.0,32.8,30.5,92,75,56,29.76,29.67,4,1,7,0.00
2014-11-1,38.7,35.7,32.9,34.8,31.5,28.0,94,85,74,29.72,29.64,10,5,15,0.01
2014-11-2,36.4,32.4,29.4,29.8,22.7,14.4,85,68,48,29.68,29.50,16,10,25,0.00
2014-11-3,43.5,34.4,26.5,27.1,17.3,8.7,70,51,24,29.76,29.55,15,8,23,0.00
2014-11-4,49.3,41.8,30.7,37.0,32.6,26.1,87,70,60,29.82,29.61,6,1,8,0.00
2014-11-5,54.1,49.4,43.8,43.8,35.2,30.6,77,59,41,29.77,29.59,11,4,17,0.00
2014-11-6,46.4,40.5,36.0,38.6,35.0,31.5,95,81,63,29.77,29.32,5,1,7,0.26
2014-11-7,35.9,33.3,29.1,34.5,30.6,24.3,96,90,82,29.49,29.23,12,6,17,0.05
2014-11-8,36.0,31.2,26.6,26.5,23.8,20.7,83,74,62,29.64,29.49,11,3,15,0.00
2014-11-9,43.3,36.1,27.9,33.8,29.1,25.0,90,76,64,29.68,29.51,8,2,10,0.00
2014-11-10,48.7,38.7,28.8,36.4,32.0,25.6,90,78,60,29.88,29.68,4,1,6,0.00
2014-11-11,56.8,46.6,38.6,46.2,40.4,32.4,93,79,63,29.85,29.62,12,3,18,0.00
2014-11-12,53.0,45.7,32.9,51.1,42.8,28.6,96,90,78,29.72,29.49,10,4,14,0.11
2014-11-13,35.3,32.0,27.3,28.8,26.2,23.3,95,80,64,29.77,29.64,8,1,10,0.00
2014-11-14,32.3,28.1,23.6,28.3,22.9,17.8,96,81,64,29.78,29.61,11,4,17,0.03
2014-11-15,31.0,25.0,21.0,19.9,15.8,12.7,87,68,51,29.99,29.78,9,3,13,0.00
2014-11-16,27.6,24.1,22.3,21.1,19.1,16.3,84,81,76,30.00,29.97,4,1,6,0.00
2014-11-18,27.1,22.6,17.3,25.1,11.5,6.2,93,63,49,29.44,29.19,12,7,21,0.06
2014-11-19,26.9,21.0,16.5,17.1,13.0,8.4,90,72,55,29.76,29.42,14,5,21,0.00
2014-11-20,31.0,23.8,18.6,23.4,15.3,10.0,82,70,53,29.65,29.41,13,4,22,0.02
2014-11-21,21.2,18.9,16.5,16.8,11.1,4.5,90,72,53,30.05,29.54,13,5,19,0.00
2014-11-22,33.8,24.6,13.1,28.0,15.7,7.0,81,69,52,30.05,29.66,7,2,9,0.00
2014-11-23,44.7,38.2,32.4,41.7,36.1,25.2,97,92,74,29.81,29.67,3,1,5,0.14
2014-11-24,58.0,50.2,40.3,56.3,48.2,36.8,98,93,84,29.73,29.15,13,6,19,0.63
2014-11-25,56.3,45.4,35.8,50.4,34.2,25.5,87,65,52,29.77,29.26,10,4,16,0.00
2014-11-26,38.5,30.8,27.0,28.9,25.7,23.0,95,82,67,29.94,29.57,9,3,14,0.00
2014-11-27,27.1,24.4,22.2,25.9,21.8,19.5,95,90,85,29.75,29.56,7,4,10,0.00
2014-11-28,23.1,20.2,14.9,20.0,16.5,11.1,92,86,74,29.90,29.72,8,2,11,0.00
2014-11-29,24.3,17.7,7.8,18.0,13.4,5.1,92,83,73,30.02,29.86,10,2,14,0.10
2014-11-30,39.2,33.1,22.7,36.6,29.7,18.0,92,87,81,29.86,29.64,9,3,12,0.11
2014-12-1,44.0,34.4,25.1,42.4,31.0,18.3,95,87,73,30.19,29.61,8,3,15,0.00
2014-12-2,26.1,21.0,10.5,22.9,14.2,6.2,94,75,59,30.44,30.10,14,3,17,0.01
2014-12-3,35.9,32.2,24.5,35.1,30.4,22.9,97,93,77,30.10,29.51,13,3,20,0.24
2014-12-4,31.5,23.0,8.4,25.1,12.9,2.9,88,65,49,30.27,29.69,16,6,22,0.00
2014-12-5,27.2,16.9,5.2,25.2,11.5,1.0,94,79,58,30.39,30.14,10,3,13,0.01
2014-12-6,32.4,30.0,26.6,31.6,28.7,25.0,97,95,89,30.14,29.88,9,2,11,0.00
2014-12-7,27.6,14.3,0.0,24.1,8.1,-5.7,89,76,59,30.48,30.06,10,4,14,0.00
2014-12-8,18.0,8.4,-2.0,15.2,2.6,-7.0,89,77,64,30.49,30.25,6,1,7,0.00
2014-12-9,34.0,27.4,17.7,33.0,26.1,14.8,97,95,88,30.25,29.48,15,4,24,0.00
2014-12-10,34.3,33.5,32.7,32.5,31.7,30.7,95,93,91,29.48,29.34,15,11,21,0.14
2014-12-17,34.7,34.4,33.6,34.2,33.5,32.3,98,97,93,29.45,29.41,5,1,6,0.09
2014-12-18,33.9,30.0,25.4,32.4,27.7,23.1,96,91,86,29.58,29.40,13,6,17,0.01
2014-12-19,25.4,21.3,13.2,23.4,18.9,10.6,92,90,87,29.91,29.58,8,5,13,0.00
2014-12-20,27.2,16.8,8.9,20.1,13.5,6.6,93,87,72,30.05,29.90,3,0,4,0.03
2014-12-21,26.9,21.1,14.5,23.5,19.1,12.6,94,92,86,30.09,30.01,2,0,4,0.01
2014-12-22,30.9,26.9,22.9,28.2,24.5,21.1,95,91,84,30.11,30.00,2,0,3,0.02
2014-12-23,34.8,32.0,28.9,33.7,31.1,27.6,98,96,94,30.00,29.88,3,0,3,0.10
2014-12-24,39.6,36.2,32.8,39.1,35.7,32.0,98,98,97,29.87,29.23,7,1,9,0.70
2014-12-25,44.7,40.5,36.7,44.2,34.8,26.5,99,81,65,29.59,29.07,18,8,24,0.10
2014-12-26,37.3,37.2,37.2,26.9,26.8,26.6,66,66,65,29.59,29.58,18,17,18,0.00
2014-12-27,38.9,36.9,32.3,33.9,32.3,29.7,91,83,77,29.88,29.59,5,2,9,0.00
2014-12-28,41.6,36.2,28.5,39.4,31.5,17.1,97,83,62,29.68,29.43,13,4,20,0.11
2014-12-29,29.3,21.8,12.1,23.0,11.8,4.2,89,66,44,29.94,29.67,11,4,19,0.00
2014-12-30,15.3,9.5,2.7,7.6,-0.2,-5.5,80,65,40,30.07,29.93,9,2,11,0.00
2014-12-31,3.2,2.0,1.2,-2.2,-3.0,-3.7,81,79,75,29.99,29.96,1,0,1,0.00
2015-1-2,24.0,17.6,11.3,21.1,11.4,-1.0,92,77,54,30.15,29.60,10,6,15,0.00